Kezdőlap
METAR-TAF:

METAR-TAF

Repülőterek :

Yap, Mikronézia

földrajzi szélesség: 09-29N, földrajzi hosszúság: 138-05E, magasság: 28 m

Jelenlegi meteorológiai megfigyelések

A jelentés 50 perccel ezelõtt készült, 09:52 UTC
Nyugat-délnyugati szél 10 kt
Hőmérséklet 29°C
Páratartalom 74%
Légköri nyomás 1007 hPa
Látótávolság: 19.3 km
Szórványos felhőzet 1600 lábon
Szórványos felhőzet 13000 lábon
Borult 30000 lábon

METAR: PTYA 160952Z 25010KT 12SM SCT016 SCT130 OVC300 29/24 A2975 RMK SLP074 T02880241

Idő: 20:42 (10:42 UTC)

Előrejelzés

A jelentés 4 órával és 47 perccel ezelõtt készült, 05:55 UTC
Az előrejelzés 16-én 06 óra UTC és 17-én 06 óra UTC között érvényes
Nyugat-délnyugati szél 11 kt
Látótávolság: 10 km
Kevés felhő 1600 lábon
Szakadozott felhőzet 12000 lábon
Záporok a közelben

TAF: PTYA 160555Z 1606/1706 24011KT P6SM VCSH FEW016 BKN120

Meteorológiai megfigyelések és előrejelzések több, mint 4000 repülőtéren (METAR és TAF jelentéseket).

A térképen piros és sárga pontok jelzik az elérhető meteorológiai állomásokat.

Mozgassa az egeret a pont fölött, hogy megjelenjen az állomás neve.

Azután kattintson az időjárási megfigyelések és előrejelzések megtekintéséhez.

A térkép megváltoztatása: kattintson a fekete keresztel jelölt zöld gombra ráközelítéshez, a vonallal jelölt zöld gombra távolításhoz, vagy a zöld nyilakra a szomszédos térképek eléréséhez.


METAR-TAF: